createdAt,value
2023-01-11T00:00:29.651Z,4.25
2023-01-11T00:03:01.507Z,4.22
2023-01-11T00:05:28.447Z,4.13
2023-01-11T00:07:55.551Z,4.60
2023-01-11T00:10:22.705Z,4.43
2023-01-11T00:12:49.583Z,4.57
2023-01-11T00:15:16.754Z,4.32
2023-01-11T00:17:43.448Z,3.78
2023-01-11T00:20:10.608Z,4.17
2023-01-11T00:22:37.752Z,4.85
2023-01-11T00:25:05.076Z,4.82
2023-01-11T00:27:31.810Z,4.25
2023-01-11T00:29:58.521Z,4.82
2023-01-11T00:32:27.199Z,4.33
2023-01-11T00:34:54.474Z,4.40
2023-01-11T00:37:21.261Z,3.63
2023-01-11T00:39:47.962Z,4.05
2023-01-11T00:42:33.223Z,4.32
2023-01-11T00:45:18.578Z,4.40
2023-01-11T00:47:57.405Z,5.00
2023-01-11T00:50:30.546Z,5.20
2023-01-11T00:52:58.515Z,3.80
2023-01-11T00:55:25.995Z,4.00
2023-01-11T00:57:52.932Z,3.77
2023-01-11T01:00:21.058Z,4.03
2023-01-11T01:02:48.187Z,3.75
2023-01-11T01:05:15.253Z,3.78
2023-01-11T01:07:43.789Z,3.60
2023-01-11T01:10:11.971Z,3.97
2023-01-11T01:12:58.318Z,3.38
2023-01-11T01:15:25.396Z,3.30
2023-01-11T01:17:55.510Z,4.15
2023-01-11T01:20:23.912Z,3.30
2023-01-11T01:22:50.684Z,3.03
2023-01-11T01:25:17.636Z,4.10
2023-01-11T01:27:44.333Z,3.08
2023-01-11T01:30:11.731Z,3.28
2023-01-11T01:32:38.493Z,3.10
2023-01-11T01:35:05.514Z,2.90
2023-01-11T01:37:32.235Z,2.83
2023-01-11T01:39:58.907Z,2.65
2023-01-11T01:42:25.741Z,3.00
2023-01-11T01:44:58.670Z,3.58
2023-01-11T01:47:40.465Z,2.93
2023-01-11T01:50:15.845Z,2.33
2023-01-11T01:52:46.278Z,3.75
2023-01-11T01:55:20.962Z,3.03
2023-01-11T01:57:47.684Z,2.60
2023-01-11T02:00:14.665Z,2.50
2023-01-11T02:02:44.348Z,2.50
2023-01-11T02:05:12.607Z,2.33
2023-01-11T02:07:41.017Z,2.45
2023-01-11T02:10:19.960Z,2.10
2023-01-11T02:13:01.451Z,2.33
2023-01-11T02:15:29.631Z,1.95
2023-01-11T02:17:56.290Z,2.10
2023-01-11T02:20:52.762Z,2.17
2023-01-11T02:23:38.179Z,1.58
2023-01-11T02:26:16.801Z,2.40
2023-01-11T02:28:55.341Z,1.80
2023-01-11T02:31:39.556Z,1.63
2023-01-11T02:34:25.455Z,1.83
2023-01-11T02:37:18.314Z,1.90
2023-01-11T02:40:23.174Z,1.63
2023-01-11T02:43:14.731Z,1.80
2023-01-11T02:46:02.871Z,1.88
2023-01-11T02:48:40.691Z,1.90
2023-01-11T02:51:13.016Z,1.98
2023-01-11T02:53:56.428Z,2.00
2023-01-11T02:56:29.650Z,2.10
2023-01-11T02:58:58.429Z,2.70
2023-01-11T03:01:25.614Z,1.98
2023-01-11T03:03:53.544Z,2.20
2023-01-11T03:06:28.450Z,2.27
2023-01-11T03:09:26.071Z,2.40
2023-01-11T03:12:51.794Z,2.50
2023-01-11T03:15:42.106Z,2.50
2023-01-11T03:18:31.235Z,2.45
2023-01-11T03:21:31.448Z,2.43
2023-01-11T03:24:27.785Z,2.47
2023-01-11T03:27:13.106Z,2.40
2023-01-11T03:29:47.589Z,2.60
2023-01-11T03:32:21.019Z,2.10
2023-01-11T03:34:53.529Z,2.23
2023-01-11T03:37:28.367Z,2.40
2023-01-11T03:40:03.992Z,2.10
2023-01-11T03:42:33.934Z,2.30
2023-01-11T03:45:02.344Z,1.80
2023-01-11T03:47:30.429Z,2.03
2023-01-11T03:50:02.722Z,1.90
2023-01-11T03:52:33.975Z,1.33
2023-01-11T03:55:04.482Z,1.13
2023-01-11T03:57:38.566Z,0.80
2023-01-11T04:00:07.799Z,0.90
2023-01-11T04:02:39.193Z,0.95
2023-01-11T04:05:07.646Z,0.85
2023-01-11T04:07:34.799Z,0.80
2023-01-11T04:10:01.794Z,1.00
2023-01-11T04:12:28.647Z,1.30
2023-01-11T04:14:55.351Z,1.10
2023-01-11T04:17:22.049Z,1.50
2023-01-11T04:19:48.776Z,1.20
2023-01-11T04:22:15.576Z,1.38
2023-01-11T04:24:42.310Z,1.60
2023-01-11T04:27:09.063Z,1.77
2023-01-11T04:29:35.781Z,1.95
2023-01-11T04:32:03.597Z,2.05
2023-01-11T04:34:30.304Z,2.40
2023-01-11T04:36:57.134Z,2.83
2023-01-11T04:39:23.907Z,2.33
2023-01-11T04:42:09.027Z,2.53
2023-01-11T04:44:35.705Z,3.25
2023-01-11T04:47:02.570Z,3.25
2023-01-11T04:49:29.268Z,3.93
2023-01-11T04:51:56.007Z,2.65
2023-01-11T04:54:22.766Z,3.38
2023-01-11T04:56:49.440Z,3.05
2023-01-11T04:59:16.840Z,2.60
2023-01-11T05:01:43.664Z,3.20
2023-01-11T05:04:12.664Z,3.30
2023-01-11T05:06:40.204Z,2.80
2023-01-11T05:09:11.943Z,3.50
2023-01-11T05:11:38.680Z,2.85
2023-01-11T05:14:05.473Z,3.17
2023-01-11T05:16:32.273Z,2.60
2023-01-11T05:19:01.398Z,2.60
2023-01-11T05:21:36.083Z,2.30
2023-01-11T05:24:06.240Z,2.28
2023-01-11T05:26:35.631Z,3.23
2023-01-11T05:29:06.267Z,2.55
2023-01-11T05:31:34.884Z,2.40
2023-01-11T05:34:01.779Z,2.80
2023-01-11T05:36:29.209Z,2.20
2023-01-11T05:38:56.891Z,2.60
2023-01-11T05:41:26.351Z,3.60
2023-01-11T05:44:12.632Z,2.80
2023-01-11T05:46:41.357Z,2.80
2023-01-11T05:49:09.015Z,2.75
2023-01-11T05:51:36.869Z,2.30
2023-01-11T05:54:05.909Z,3.00
2023-01-11T05:56:32.822Z,2.88
2023-01-11T05:58:59.603Z,2.80
2023-01-11T06:01:26.865Z,3.20
2023-01-11T06:03:53.564Z,2.97
2023-01-11T06:06:21.467Z,3.00
2023-01-11T06:08:48.605Z,2.00
2023-01-11T06:11:15.458Z,3.22
2023-01-11T06:13:42.514Z,3.83
2023-01-11T06:16:14.633Z,2.57
2023-01-11T06:18:44.975Z,2.90
2023-01-11T06:21:12.977Z,2.72
2023-01-11T06:23:41.786Z,2.67
2023-01-11T06:26:11.718Z,3.33
2023-01-11T06:28:39.328Z,2.83
2023-01-11T06:31:06.811Z,2.90
2023-01-11T06:33:34.209Z,3.13
2023-01-11T06:36:07.690Z,2.92
2023-01-11T06:38:35.475Z,3.85
2023-01-11T06:41:04.099Z,2.70
2023-01-11T06:43:32.392Z,2.15
2023-01-11T06:45:59.982Z,2.58
2023-01-11T06:48:27.608Z,3.42
2023-01-11T06:50:57.699Z,3.47
2023-01-11T06:53:28.341Z,3.63
2023-01-11T06:55:57.446Z,2.25
2023-01-11T06:58:25.848Z,2.83
2023-01-11T07:00:54.781Z,2.85
2023-01-11T07:03:23.931Z,2.47
2023-01-11T07:05:51.393Z,2.80
2023-01-11T07:08:18.830Z,2.88
2023-01-11T07:10:45.589Z,2.85
2023-01-11T07:13:12.781Z,3.17
2023-01-11T07:15:39.550Z,2.28
2023-01-11T07:18:06.284Z,2.67
2023-01-11T07:20:33.069Z,2.30
2023-01-11T07:23:00.824Z,2.20
2023-01-11T07:25:30.990Z,2.63
2023-01-11T07:28:02.412Z,2.58
2023-01-11T07:30:30.926Z,2.13
2023-01-11T07:32:58.648Z,2.50
2023-01-11T07:35:28.102Z,2.83
2023-01-11T07:37:55.704Z,2.60
2023-01-11T07:40:22.405Z,2.50
2023-01-11T07:43:14.461Z,2.37
2023-01-11T07:45:46.682Z,2.97
2023-01-11T07:48:15.035Z,2.50
2023-01-11T07:50:44.865Z,2.13
2023-01-11T07:53:12.897Z,2.88
2023-01-11T07:55:40.539Z,2.73
2023-01-11T07:58:11.937Z,2.28
2023-01-11T08:00:41.063Z,2.83
2023-01-11T08:03:08.481Z,2.38
2023-01-11T08:05:35.574Z,2.53
2023-01-11T08:08:02.556Z,2.77
2023-01-11T08:10:29.458Z,2.00
2023-01-11T08:13:15.311Z,2.95
2023-01-11T08:15:45.105Z,2.70
2023-01-11T08:18:12.772Z,2.20
2023-01-11T08:20:40.429Z,2.40
2023-01-11T08:23:09.810Z,2.30
2023-01-11T08:25:37.150Z,2.95
2023-01-11T08:28:06.695Z,2.40
2023-01-11T08:30:33.631Z,3.10
2023-01-11T08:33:01.516Z,3.00
2023-01-11T08:35:28.487Z,2.85
2023-01-11T08:37:55.147Z,2.78
2023-01-11T08:40:24.069Z,2.50
2023-01-11T08:42:58.296Z,2.35
2023-01-11T08:45:25.515Z,2.53
2023-01-11T08:47:52.961Z,2.00
2023-01-11T08:50:21.388Z,2.03
2023-01-11T08:52:51.135Z,2.97
2023-01-11T08:55:18.856Z,3.05
2023-01-11T08:57:45.911Z,2.33
2023-01-11T09:00:13.339Z,2.70
2023-01-11T09:02:40.324Z,2.88
2023-01-11T09:05:07.358Z,2.17
2023-01-11T09:07:34.169Z,2.35
2023-01-11T09:10:00.947Z,2.57
2023-01-11T09:12:27.735Z,2.50
2023-01-11T09:14:54.530Z,2.53
2023-01-11T09:17:21.335Z,2.83
2023-01-11T09:19:48.129Z,3.53
2023-01-11T09:22:14.861Z,3.37
2023-01-11T09:24:41.586Z,2.97
2023-01-11T09:27:08.408Z,2.58
2023-01-11T09:29:37.320Z,2.33
2023-01-11T09:32:04.612Z,2.55
2023-01-11T09:34:31.586Z,2.50
2023-01-11T09:37:00.526Z,2.60
2023-01-11T09:39:28.686Z,3.08
2023-01-11T09:42:21.562Z,2.45
2023-01-11T09:44:50.818Z,2.65
2023-01-11T09:47:34.060Z,2.90
2023-01-11T09:50:06.184Z,2.90
2023-01-11T09:52:41.071Z,2.90
2023-01-11T09:55:15.417Z,3.83
2023-01-11T09:58:11.855Z,3.97
2023-01-11T10:00:49.265Z,2.70
2023-01-11T10:03:19.469Z,3.55
2023-01-11T10:06:09.014Z,2.85
2023-01-11T10:18:41.543Z,2.70
2023-01-11T10:19:12.209Z,2.75
2023-01-11T10:21:37.433Z,2.45
2023-01-11T10:24:14.758Z,3.17
2023-01-11T10:26:41.973Z,3.00
2023-01-11T10:29:17.278Z,2.33
2023-01-11T10:32:09.620Z,3.08
2023-01-11T10:35:02.376Z,2.75
2023-01-11T10:37:56.953Z,3.58
2023-01-11T10:40:59.350Z,2.47
2023-01-11T10:43:26.840Z,2.33
2023-01-11T10:48:38.154Z,2.95
2023-01-11T10:51:25.380Z,2.95
2023-01-11T10:54:16.697Z,3.25
2023-01-11T10:57:15.908Z,3.00
2023-01-11T11:00:13.562Z,2.53
2023-01-11T11:02:56.036Z,2.20
2023-01-11T11:05:33.139Z,2.63
2023-01-11T11:08:27.026Z,2.55
2023-01-11T11:11:05.514Z,2.97
2023-01-11T11:13:43.287Z,2.53
2023-01-11T11:16:22.336Z,2.45
2023-01-11T11:18:55.669Z,2.75
2023-01-11T11:21:33.671Z,2.47
2023-01-11T11:24:23.387Z,2.93
2023-01-11T11:26:57.907Z,2.45
2023-01-11T11:29:30.447Z,2.67
2023-01-11T11:32:00.027Z,2.53
2023-01-11T11:34:28.215Z,1.88
2023-01-11T11:36:59.024Z,2.27
2023-01-11T11:39:29.219Z,3.63
2023-01-11T11:42:04.958Z,2.35
2023-01-11T11:44:32.039Z,2.88
2023-01-11T11:47:05.005Z,2.10
2023-01-11T11:49:42.147Z,2.80
2023-01-11T11:52:17.668Z,2.38
2023-01-11T11:54:56.803Z,3.25
2023-01-11T11:57:29.768Z,2.08
2023-01-11T12:00:07.508Z,3.63
2023-01-11T12:02:37.102Z,3.60
2023-01-11T12:05:10.187Z,2.85
2023-01-11T12:07:54.301Z,2.88
2023-01-11T12:10:24.519Z,3.35
2023-01-11T12:12:55.958Z,2.50
2023-01-11T12:15:22.767Z,2.30
2023-01-11T12:17:50.042Z,2.88
2023-01-11T12:20:22.337Z,3.78
2023-01-11T12:22:50.701Z,2.88
2023-01-11T12:25:17.396Z,2.97
2023-01-11T12:27:50.653Z,2.73
2023-01-11T12:30:20.400Z,3.10
2023-01-11T12:32:53.485Z,2.25
2023-01-11T12:35:56.372Z,3.00
2023-01-11T12:38:41.171Z,2.78
2023-01-11T12:41:44.758Z,2.53
2023-01-11T12:44:34.308Z,2.45
2023-01-11T12:47:06.775Z,2.67
2023-01-11T12:49:54.882Z,2.80
2023-01-11T12:52:56.837Z,2.78
2023-01-11T12:55:29.435Z,2.23
2023-01-11T12:58:19.698Z,2.83
2023-01-11T13:01:14.791Z,2.33
2023-01-11T13:03:59.784Z,1.98
2023-01-11T13:06:49.631Z,2.35
2023-01-11T13:09:16.835Z,1.90
2023-01-11T13:11:58.087Z,3.60
2023-01-11T13:14:49.718Z,2.83
2023-01-11T13:17:24.057Z,2.25
2023-01-11T13:20:05.976Z,2.20
2023-01-11T13:22:38.028Z,2.87
2023-01-11T13:25:23.875Z,3.08
2023-01-11T13:27:52.601Z,3.15
2023-01-11T13:30:20.139Z,2.88
2023-01-11T13:33:03.040Z,2.58
2023-01-11T13:35:42.240Z,2.77
2023-01-11T13:38:34.561Z,2.92
2023-01-11T13:41:31.205Z,3.38
2023-01-11T13:44:06.417Z,2.35
2023-01-11T13:46:57.706Z,2.55
2023-01-11T13:49:43.289Z,2.50
2023-01-11T13:52:20.247Z,2.13
2023-01-11T13:55:02.022Z,2.85
2023-01-11T13:57:43.566Z,2.90
2023-01-11T14:00:18.963Z,3.50
2023-01-11T14:02:57.625Z,3.80
2023-01-11T14:05:28.820Z,2.92
2023-01-11T14:08:19.027Z,3.10
2023-01-11T14:11:01.854Z,2.88
2023-01-11T14:14:15.671Z,3.28
2023-01-11T14:17:06.356Z,2.60
2023-01-11T14:19:48.242Z,2.78
2023-01-11T14:22:41.229Z,2.58
2023-01-11T14:25:16.871Z,2.97
2023-01-11T14:28:25.465Z,3.10
2023-01-11T14:30:55.269Z,2.37
2023-01-11T14:33:35.330Z,2.88
2023-01-11T14:36:13.966Z,2.70
2023-01-11T14:39:01.818Z,2.67
2023-01-11T14:41:34.603Z,2.67
2023-01-11T14:44:38.963Z,2.33
2023-01-11T14:47:17.806Z,2.42
2023-01-11T14:50:05.018Z,3.20
2023-01-11T14:52:40.808Z,2.53
2023-01-11T14:55:27.708Z,3.03
2023-01-11T14:58:21.454Z,3.07
2023-01-11T15:00:48.244Z,2.83
2023-01-11T15:03:19.563Z,3.00
2023-01-11T15:05:55.458Z,3.17
2023-01-11T15:08:25.880Z,2.55
2023-01-11T15:10:59.027Z,3.23
2023-01-11T15:13:29.790Z,2.67
2023-01-11T15:16:36.806Z,2.53
2023-01-11T15:19:11.473Z,3.60
2023-01-11T15:21:47.388Z,3.55
2023-01-11T15:24:25.289Z,3.17
2023-01-11T15:26:52.729Z,1.95
2023-01-11T15:29:23.124Z,2.80
2023-01-11T15:32:15.346Z,2.47
2023-01-11T15:34:45.739Z,2.47
2023-01-11T15:37:36.920Z,2.80
2023-01-11T15:40:09.884Z,3.47
2023-01-11T15:42:48.757Z,2.55
2023-01-11T15:46:05.656Z,2.35
2023-01-11T15:48:44.205Z,2.85
2023-01-11T15:51:45.924Z,3.17
2023-01-11T15:54:25.133Z,2.28
2023-01-11T15:57:35.850Z,2.42
2023-01-11T16:00:30.218Z,2.65
2023-01-11T16:03:22.922Z,2.95
2023-01-11T16:06:24.339Z,2.80
2023-01-11T16:09:00.012Z,2.63
2023-01-11T16:12:02.689Z,2.60
2023-01-11T16:15:08.281Z,2.90
2023-01-11T16:17:39.747Z,3.08
2023-01-11T16:20:22.914Z,3.00
2023-01-11T16:22:57.148Z,3.20
2023-01-11T16:25:28.879Z,2.80
2023-01-11T16:27:58.727Z,2.25
2023-01-11T16:30:26.730Z,2.80
2023-01-11T16:32:53.669Z,2.70
2023-01-11T16:35:23.605Z,2.53
2023-01-11T16:37:56.268Z,2.63
2023-01-11T16:40:33.825Z,2.30
2023-01-11T16:43:29.008Z,2.30
2023-01-11T16:45:56.150Z,2.70
2023-01-11T16:48:28.551Z,2.40
2023-01-11T16:51:10.044Z,2.63
2023-01-11T16:53:39.323Z,2.05
2023-01-11T16:56:16.480Z,2.58
2023-01-11T16:58:43.390Z,2.10
2023-01-11T17:01:14.909Z,2.08
2023-01-11T17:03:53.549Z,1.98
2023-01-11T17:06:24.935Z,2.38
2023-01-11T17:08:56.860Z,2.17
2023-01-11T17:11:53.110Z,2.40
2023-01-11T17:14:37.679Z,2.30
2023-01-11T17:17:10.642Z,1.65
2023-01-11T17:19:49.599Z,2.35
2023-01-11T17:22:18.263Z,2.63
2023-01-11T17:25:03.509Z,2.70
2023-01-11T17:27:40.541Z,2.40
2023-01-11T17:30:17.995Z,2.17
2023-01-11T17:32:48.175Z,2.90
2023-01-11T17:35:23.329Z,2.80
2023-01-11T17:37:56.399Z,2.73
2023-01-11T17:40:57.387Z,2.13
2023-01-11T17:43:45.025Z,2.78
2023-01-11T17:46:25.646Z,3.28
2023-01-11T17:49:00.463Z,2.13
2023-01-11T17:51:29.419Z,2.37
2023-01-11T17:53:56.202Z,2.28
2023-01-11T17:56:41.747Z,2.55
2023-01-11T17:59:11.207Z,2.70
2023-01-11T18:01:38.184Z,2.10
2023-01-11T18:04:04.987Z,2.10
2023-01-11T18:06:39.948Z,2.42
2023-01-11T18:09:17.599Z,2.47
2023-01-11T18:11:44.799Z,2.22
2023-01-11T18:14:29.835Z,2.40
2023-01-11T18:17:24.908Z,2.53
2023-01-11T18:19:52.035Z,2.42
2023-01-11T18:22:40.601Z,2.38
2023-01-11T18:25:24.084Z,2.05
2023-01-11T18:27:51.279Z,2.17
2023-01-11T18:30:33.136Z,2.17
2023-01-11T18:33:02.176Z,2.60
2023-01-11T18:35:29.612Z,2.25
2023-01-11T18:37:56.408Z,2.42
2023-01-11T18:40:23.167Z,2.53
2023-01-11T18:42:52.121Z,3.00
2023-01-11T18:45:20.063Z,2.25
2023-01-11T18:47:46.750Z,2.40
2023-01-11T18:50:14.230Z,3.85
2023-01-11T18:52:40.991Z,2.67
2023-01-11T18:55:11.386Z,2.93
2023-01-11T18:57:38.159Z,2.55
2023-01-11T19:00:05.623Z,3.10
2023-01-11T19:02:42.282Z,2.67
2023-01-11T19:05:16.555Z,3.72
2023-01-11T19:07:43.879Z,2.47
2023-01-11T19:10:21.803Z,3.38
2023-01-11T19:12:48.849Z,2.55
2023-01-11T19:15:15.844Z,2.78
2023-01-11T19:17:43.450Z,2.92
2023-01-11T19:20:11.121Z,2.30
2023-01-11T19:22:38.194Z,2.65
2023-01-11T19:25:06.656Z,3.42
2023-01-11T19:27:33.374Z,2.25
2023-01-11T19:30:00.074Z,2.63
2023-01-11T19:32:26.812Z,2.50
2023-01-11T19:34:57.853Z,2.70
2023-01-11T19:37:30.185Z,2.22
2023-01-11T19:39:57.003Z,2.75
2023-01-11T19:42:23.907Z,2.58
2023-01-11T19:44:51.351Z,3.03
2023-01-11T19:47:18.172Z,2.35
2023-01-11T19:49:45.105Z,2.55
2023-01-11T19:52:14.541Z,2.67
2023-01-11T19:54:45.558Z,2.97
2023-01-11T19:57:14.652Z,2.37
2023-01-11T19:59:42.148Z,1.90
2023-01-11T20:02:11.824Z,2.80
2023-01-11T20:04:38.718Z,1.90
2023-01-11T20:07:06.482Z,2.28
2023-01-11T20:09:33.290Z,2.80
2023-01-11T20:12:00.125Z,2.33
2023-01-11T20:14:26.888Z,3.05
2023-01-11T20:16:53.661Z,2.60
2023-01-11T20:19:20.484Z,2.22
2023-01-11T20:21:47.195Z,3.07
2023-01-11T20:24:14.772Z,2.83
2023-01-11T20:26:42.523Z,2.60
2023-01-11T20:29:09.257Z,2.53
2023-01-11T20:31:36.400Z,2.47
2023-01-11T20:34:09.848Z,4.13
2023-01-11T20:36:37.528Z,2.40
2023-01-11T20:39:04.956Z,2.13
2023-01-11T20:41:46.904Z,2.88
2023-01-11T20:44:18.012Z,2.58
2023-01-11T20:46:48.024Z,2.00
2023-01-11T20:49:15.837Z,3.15
2023-01-11T20:51:42.924Z,2.60
2023-01-11T20:54:10.386Z,3.20
2023-01-11T20:56:38.583Z,3.53
2023-01-11T20:59:09.388Z,2.10
2023-01-11T21:01:36.854Z,2.97
2023-01-11T21:04:06.259Z,2.15
2023-01-11T21:06:35.315Z,2.75
2023-01-11T21:09:02.749Z,2.67
2023-01-11T21:11:33.206Z,2.83
2023-01-11T21:14:01.611Z,2.85
2023-01-11T21:16:29.929Z,2.22
2023-01-11T21:18:58.920Z,3.15
2023-01-11T21:21:27.250Z,2.38
2023-01-11T21:23:56.303Z,2.03
2023-01-11T21:26:24.162Z,2.13
2023-01-11T21:28:53.844Z,2.28
2023-01-11T21:31:21.339Z,2.38
2023-01-11T21:33:49.516Z,2.25
2023-01-11T21:36:18.557Z,2.20
2023-01-11T21:38:45.367Z,2.47
2023-01-11T21:41:44.094Z,2.05
2023-01-11T21:44:12.594Z,1.88
2023-01-11T21:46:40.126Z,2.38
2023-01-11T21:49:07.163Z,2.40
2023-01-11T21:51:34.483Z,3.05
2023-01-11T21:54:05.408Z,2.28
2023-01-11T21:56:32.519Z,2.53
2023-01-11T21:58:59.344Z,2.20
2023-01-11T22:01:26.391Z,2.47
2023-01-11T22:03:53.168Z,3.03
2023-01-11T22:06:19.885Z,2.03
2023-01-11T22:08:46.865Z,2.72
2023-01-11T22:11:16.073Z,2.10
2023-01-11T22:13:43.350Z,2.70
2023-01-11T22:16:15.810Z,2.47
2023-01-11T22:18:43.072Z,2.13
2023-01-11T22:21:18.174Z,2.88
2023-01-11T22:23:47.101Z,2.72
2023-01-11T22:26:18.206Z,2.40
2023-01-11T22:29:04.869Z,2.35
2023-01-11T22:31:33.377Z,2.15
2023-01-11T22:34:00.678Z,2.33
2023-01-11T22:36:28.820Z,2.10
2023-01-11T22:38:56.171Z,2.43
2023-01-11T22:41:24.855Z,2.78
2023-01-11T22:43:51.891Z,2.33
2023-01-11T22:46:21.250Z,2.25
2023-01-11T22:48:48.704Z,2.03
2023-01-11T22:51:17.420Z,2.73
2023-01-11T22:53:46.617Z,2.90
2023-01-11T22:56:15.168Z,2.45
2023-01-11T22:58:41.902Z,2.40
2023-01-11T23:01:16.044Z,2.42
2023-01-11T23:03:43.353Z,1.93
2023-01-11T23:06:10.302Z,2.20
2023-01-11T23:08:42.044Z,1.92
2023-01-11T23:11:38.591Z,2.70
2023-01-11T23:14:10.451Z,2.00
2023-01-11T23:16:38.048Z,2.40
2023-01-11T23:19:06.910Z,2.67
2023-01-11T23:21:34.832Z,1.98
2023-01-11T23:24:02.316Z,1.77
2023-01-11T23:26:29.872Z,3.10
2023-01-11T23:28:57.266Z,2.97
2023-01-11T23:31:25.733Z,2.17
2023-01-11T23:33:55.142Z,2.67
2023-01-11T23:36:24.100Z,2.72
2023-01-11T23:38:51.318Z,2.70
2023-01-11T23:41:38.642Z,2.60
2023-01-11T23:44:10.761Z,2.45
2023-01-11T23:46:57.520Z,2.88
2023-01-11T23:49:27.278Z,2.70
2023-01-11T23:51:55.060Z,2.60
2023-01-11T23:54:21.937Z,2.40
2023-01-11T23:56:49.150Z,2.42
2023-01-11T23:59:15.931Z,2.30
